sensor_id;sensor_type;location;lat;lon;timestamp;temperature;humidity
54429;DHT22;40337;52.978;6.310;2024-01-16T00:00:07;0.60;99.90
54429;DHT22;40337;52.978;6.310;2024-01-16T00:02:34;0.60;99.90
54429;DHT22;40337;52.978;6.310;2024-01-16T00:05:00;0.50;99.90
54429;DHT22;40337;52.978;6.310;2024-01-16T00:07:25;0.60;99.90
54429;DHT22;40337;52.978;6.310;2024-01-16T00:09:51;0.60;99.90
54429;DHT22;40337;52.978;6.310;2024-01-16T00:12:19;0.70;99.90
54429;DHT22;40337;52.978;6.310;2024-01-16T00:14:45;0.70;99.90
54429;DHT22;40337;52.978;6.310;2024-01-16T00:17:10;0.70;99.90
54429;DHT22;40337;52.978;6.310;2024-01-16T00:19:37;0.70;99.90
54429;DHT22;40337;52.978;6.310;2024-01-16T00:22:02;0.80;99.90
54429;DHT22;40337;52.978;6.310;2024-01-16T00:24:30;0.70;99.90
54429;DHT22;40337;52.978;6.310;2024-01-16T00:26:56;0.80;99.90
54429;DHT22;40337;52.978;6.310;2024-01-16T00:29:21;0.70;99.90
54429;DHT22;40337;52.978;6.310;2024-01-16T00:31:47;0.70;99.90
54429;DHT22;40337;52.978;6.310;2024-01-16T00:34:13;0.80;99.90
54429;DHT22;40337;52.978;6.310;2024-01-16T00:36:39;0.80;99.90
54429;DHT22;40337;52.978;6.310;2024-01-16T00:39:04;0.80;99.90
54429;DHT22;40337;52.978;6.310;2024-01-16T00:41:30;0.90;99.90
54429;DHT22;40337;52.978;6.310;2024-01-16T00:43:56;0.90;99.90
54429;DHT22;40337;52.978;6.310;2024-01-16T00:46:22;0.90;99.90
54429;DHT22;40337;52.978;6.310;2024-01-16T00:48:47;0.90;99.90
54429;DHT22;40337;52.978;6.310;2024-01-16T00:51:13;1.00;99.90
54429;DHT22;40337;52.978;6.310;2024-01-16T00:53:42;0.90;99.90
54429;DHT22;40337;52.978;6.310;2024-01-16T00:56:08;0.90;99.90
54429;DHT22;40337;52.978;6.310;2024-01-16T00:58:33;0.80;99.90
54429;DHT22;40337;52.978;6.310;2024-01-16T01:00:59;0.90;99.90
54429;DHT22;40337;52.978;6.310;2024-01-16T01:03:25;0.90;99.90
54429;DHT22;40337;52.978;6.310;2024-01-16T01:05:51;1.00;99.90
54429;DHT22;40337;52.978;6.310;2024-01-16T01:08:18;1.00;99.90
54429;DHT22;40337;52.978;6.310;2024-01-16T01:10:44;1.00;99.90
54429;DHT22;40337;52.978;6.310;2024-01-16T01:13:10;1.00;99.90
54429;DHT22;40337;52.978;6.310;2024-01-16T01:15:35;1.10;99.90
54429;DHT22;40337;52.978;6.310;2024-01-16T01:18:01;1.00;99.90
54429;DHT22;40337;52.978;6.310;2024-01-16T01:20:27;1.00;99.90
54429;DHT22;40337;52.978;6.310;2024-01-16T01:22:52;1.00;99.90
54429;DHT22;40337;52.978;6.310;2024-01-16T01:25:18;1.00;99.90
54429;DHT22;40337;52.978;6.310;2024-01-16T01:27:45;1.00;99.90
54429;DHT22;40337;52.978;6.310;2024-01-16T01:30:11;0.80;99.90
54429;DHT22;40337;52.978;6.310;2024-01-16T01:32:38;0.80;99.90
54429;DHT22;40337;52.978;6.310;2024-01-16T01:35:04;0.80;99.90
54429;DHT22;40337;52.978;6.310;2024-01-16T01:37:30;0.70;99.90
54429;DHT22;40337;52.978;6.310;2024-01-16T01:39:56;0.60;99.90
54429;DHT22;40337;52.978;6.310;2024-01-16T01:42:21;0.60;99.90
54429;DHT22;40337;52.978;6.310;2024-01-16T01:44:48;0.60;99.90
54429;DHT22;40337;52.978;6.310;2024-01-16T01:47:14;0.60;99.90
54429;DHT22;40337;52.978;6.310;2024-01-16T01:49:40;0.60;99.90
54429;DHT22;40337;52.978;6.310;2024-01-16T01:52:06;0.60;99.90
54429;DHT22;40337;52.978;6.310;2024-01-16T01:54:36;0.60;99.90
54429;DHT22;40337;52.978;6.310;2024-01-16T01:57:02;0.70;99.90
54429;DHT22;40337;52.978;6.310;2024-01-16T01:59:29;0.70;99.90
54429;DHT22;40337;52.978;6.310;2024-01-16T02:01:56;0.70;99.90
54429;DHT22;40337;52.978;6.310;2024-01-16T02:04:22;0.70;99.90
54429;DHT22;40337;52.978;6.310;2024-01-16T02:06:50;0.80;99.90
54429;DHT22;40337;52.978;6.310;2024-01-16T02:09:15;0.80;99.90
54429;DHT22;40337;52.978;6.310;2024-01-16T02:11:42;0.90;99.90
54429;DHT22;40337;52.978;6.310;2024-01-16T02:14:08;0.90;99.90
54429;DHT22;40337;52.978;6.310;2024-01-16T02:16:42;1.00;99.90
54429;DHT22;40337;52.978;6.310;2024-01-16T02:19:08;1.00;99.90
54429;DHT22;40337;52.978;6.310;2024-01-16T02:21:42;1.00;99.90
54429;DHT22;40337;52.978;6.310;2024-01-16T02:24:10;1.00;99.90
54429;DHT22;40337;52.978;6.310;2024-01-16T02:26:37;1.10;99.90
54429;DHT22;40337;52.978;6.310;2024-01-16T02:29:03;1.10;99.90
54429;DHT22;40337;52.978;6.310;2024-01-16T02:31:32;1.20;99.90
54429;DHT22;40337;52.978;6.310;2024-01-16T02:33:58;1.10;99.90
54429;DHT22;40337;52.978;6.310;2024-01-16T02:36:25;1.10;99.90
54429;DHT22;40337;52.978;6.310;2024-01-16T02:38:51;1.10;99.90
54429;DHT22;40337;52.978;6.310;2024-01-16T02:41:17;1.00;99.90
54429;DHT22;40337;52.978;6.310;2024-01-16T02:43:43;0.90;99.90
54429;DHT22;40337;52.978;6.310;2024-01-16T02:46:09;0.90;99.90
54429;DHT22;40337;52.978;6.310;2024-01-16T02:48:37;0.90;99.90
54429;DHT22;40337;52.978;6.310;2024-01-16T02:51:04;0.90;99.90
54429;DHT22;40337;52.978;6.310;2024-01-16T02:53:32;0.90;99.90
54429;DHT22;40337;52.978;6.310;2024-01-16T02:55:58;0.80;99.90
54429;DHT22;40337;52.978;6.310;2024-01-16T02:58:30;0.80;99.90
54429;DHT22;40337;52.978;6.310;2024-01-16T03:00:59;0.80;99.90
54429;DHT22;40337;52.978;6.310;2024-01-16T03:03:24;0.70;99.90
54429;DHT22;40337;52.978;6.310;2024-01-16T03:05:50;0.60;99.90
54429;DHT22;40337;52.978;6.310;2024-01-16T03:08:16;0.70;99.90
54429;DHT22;40337;52.978;6.310;2024-01-16T03:10:41;0.60;99.90
54429;DHT22;40337;52.978;6.310;2024-01-16T03:13:07;0.60;99.90
54429;DHT22;40337;52.978;6.310;2024-01-16T03:15:33;0.50;99.90
54429;DHT22;40337;52.978;6.310;2024-01-16T03:17:59;0.50;99.90
54429;DHT22;40337;52.978;6.310;2024-01-16T03:20:29;0.40;99.90
54429;DHT22;40337;52.978;6.310;2024-01-16T03:22:54;0.40;99.90
54429;DHT22;40337;52.978;6.310;2024-01-16T03:25:20;0.50;99.90
54429;DHT22;40337;52.978;6.310;2024-01-16T03:27:47;0.50;99.90
54429;DHT22;40337;52.978;6.310;2024-01-16T03:30:12;0.50;99.90
54429;DHT22;40337;52.978;6.310;2024-01-16T03:32:38;0.50;99.90
54429;DHT22;40337;52.978;6.310;2024-01-16T03:35:05;0.60;99.90
54429;DHT22;40337;52.978;6.310;2024-01-16T03:37:31;0.60;99.90
54429;DHT22;40337;52.978;6.310;2024-01-16T03:39:57;0.60;99.90
54429;DHT22;40337;52.978;6.310;2024-01-16T03:42:24;0.70;99.90
54429;DHT22;40337;52.978;6.310;2024-01-16T03:44:49;0.70;99.90
54429;DHT22;40337;52.978;6.310;2024-01-16T03:47:15;0.60;99.90
54429;DHT22;40337;52.978;6.310;2024-01-16T03:49:41;0.60;99.90
54429;DHT22;40337;52.978;6.310;2024-01-16T03:52:07;0.60;99.90
54429;DHT22;40337;52.978;6.310;2024-01-16T03:54:32;0.70;99.90
54429;DHT22;40337;52.978;6.310;2024-01-16T03:56:59;0.70;99.90
54429;DHT22;40337;52.978;6.310;2024-01-16T03:59:25;0.70;99.90
54429;DHT22;40337;52.978;6.310;2024-01-16T04:01:50;0.70;99.90
54429;DHT22;40337;52.978;6.310;2024-01-16T04:04:16;0.60;99.90
54429;DHT22;40337;52.978;6.310;2024-01-16T04:06:42;0.60;99.90
54429;DHT22;40337;52.978;6.310;2024-01-16T04:09:08;0.50;99.90
54429;DHT22;40337;52.978;6.310;2024-01-16T04:11:35;0.50;99.90
54429;DHT22;40337;52.978;6.310;2024-01-16T04:14:01;0.50;99.90
54429;DHT22;40337;52.978;6.310;2024-01-16T04:16:27;0.50;99.90
54429;DHT22;40337;52.978;6.310;2024-01-16T04:18:53;0.50;99.90
54429;DHT22;40337;52.978;6.310;2024-01-16T04:21:18;0.50;99.90
54429;DHT22;40337;52.978;6.310;2024-01-16T04:23:44;0.50;99.90
54429;DHT22;40337;52.978;6.310;2024-01-16T04:26:10;0.50;99.90
54429;DHT22;40337;52.978;6.310;2024-01-16T04:28:35;0.40;99.90
54429;DHT22;40337;52.978;6.310;2024-01-16T04:31:13;0.40;99.90
54429;DHT22;40337;52.978;6.310;2024-01-16T04:33:39;0.40;99.90
54429;DHT22;40337;52.978;6.310;2024-01-16T04:36:06;0.40;99.90
54429;DHT22;40337;52.978;6.310;2024-01-16T04:38:32;0.40;99.90
54429;DHT22;40337;52.978;6.310;2024-01-16T04:41:01;0.40;99.90
54429;DHT22;40337;52.978;6.310;2024-01-16T04:43:27;0.40;99.90
54429;DHT22;40337;52.978;6.310;2024-01-16T04:45:53;0.50;99.90
54429;DHT22;40337;52.978;6.310;2024-01-16T04:48:19;0.50;99.90
54429;DHT22;40337;52.978;6.310;2024-01-16T04:50:44;0.50;99.90
54429;DHT22;40337;52.978;6.310;2024-01-16T04:53:11;0.40;99.90
54429;DHT22;40337;52.978;6.310;2024-01-16T04:55:36;0.50;99.90
54429;DHT22;40337;52.978;6.310;2024-01-16T04:58:02;0.50;99.90
54429;DHT22;40337;52.978;6.310;2024-01-16T05:00:28;0.50;99.90
54429;DHT22;40337;52.978;6.310;2024-01-16T05:02:54;0.60;99.90
54429;DHT22;40337;52.978;6.310;2024-01-16T05:05:19;0.60;99.90
54429;DHT22;40337;52.978;6.310;2024-01-16T05:07:45;0.50;99.90
54429;DHT22;40337;52.978;6.310;2024-01-16T05:10:12;0.50;99.90
54429;DHT22;40337;52.978;6.310;2024-01-16T05:12:41;0.60;99.90
54429;DHT22;40337;52.978;6.310;2024-01-16T05:15:07;0.60;99.90
54429;DHT22;40337;52.978;6.310;2024-01-16T05:17:33;0.60;99.90
54429;DHT22;40337;52.978;6.310;2024-01-16T05:19:59;0.60;99.90
54429;DHT22;40337;52.978;6.310;2024-01-16T05:22:25;0.60;99.90
54429;DHT22;40337;52.978;6.310;2024-01-16T05:24:51;0.60;99.90
54429;DHT22;40337;52.978;6.310;2024-01-16T05:27:17;0.70;99.90
54429;DHT22;40337;52.978;6.310;2024-01-16T05:29:42;0.70;99.90
54429;DHT22;40337;52.978;6.310;2024-01-16T05:32:08;0.70;99.90
54429;DHT22;40337;52.978;6.310;2024-01-16T05:34:34;0.70;99.90
54429;DHT22;40337;52.978;6.310;2024-01-16T05:36:59;0.70;99.90
54429;DHT22;40337;52.978;6.310;2024-01-16T05:39:25;0.80;99.90
54429;DHT22;40337;52.978;6.310;2024-01-16T05:41:50;0.80;99.90
54429;DHT22;40337;52.978;6.310;2024-01-16T05:44:17;0.80;99.90
54429;DHT22;40337;52.978;6.310;2024-01-16T05:46:42;0.90;99.90
54429;DHT22;40337;52.978;6.310;2024-01-16T05:49:08;0.90;99.90
54429;DHT22;40337;52.978;6.310;2024-01-16T05:51:34;0.90;99.90
54429;DHT22;40337;52.978;6.310;2024-01-16T05:53:59;0.90;99.90
54429;DHT22;40337;52.978;6.310;2024-01-16T05:56:25;0.90;99.90
54429;DHT22;40337;52.978;6.310;2024-01-16T05:58:51;0.90;99.90
54429;DHT22;40337;52.978;6.310;2024-01-16T06:01:17;0.90;99.90
54429;DHT22;40337;52.978;6.310;2024-01-16T06:03:43;0.90;99.90
54429;DHT22;40337;52.978;6.310;2024-01-16T06:06:11;0.90;99.90
54429;DHT22;40337;52.978;6.310;2024-01-16T06:08:37;0.90;99.90
54429;DHT22;40337;52.978;6.310;2024-01-16T06:11:02;0.90;99.90
54429;DHT22;40337;52.978;6.310;2024-01-16T06:13:28;0.90;99.90
54429;DHT22;40337;52.978;6.310;2024-01-16T06:15:55;0.90;99.90
54429;DHT22;40337;52.978;6.310;2024-01-16T06:18:21;0.90;99.90
54429;DHT22;40337;52.978;6.310;2024-01-16T06:20:47;0.90;99.90
54429;DHT22;40337;52.978;6.310;2024-01-16T06:23:12;0.90;99.90
54429;DHT22;40337;52.978;6.310;2024-01-16T06:25:38;0.90;99.90
54429;DHT22;40337;52.978;6.310;2024-01-16T06:28:03;0.90;99.90
54429;DHT22;40337;52.978;6.310;2024-01-16T06:30:30;0.90;99.90
54429;DHT22;40337;52.978;6.310;2024-01-16T06:32:56;0.90;99.90
54429;DHT22;40337;52.978;6.310;2024-01-16T06:35:22;0.90;99.90
54429;DHT22;40337;52.978;6.310;2024-01-16T06:37:49;1.00;99.90
54429;DHT22;40337;52.978;6.310;2024-01-16T06:40:14;1.00;99.90
54429;DHT22;40337;52.978;6.310;2024-01-16T06:42:40;1.00;99.90
54429;DHT22;40337;52.978;6.310;2024-01-16T06:45:06;1.00;99.90
54429;DHT22;40337;52.978;6.310;2024-01-16T06:47:32;1.00;99.90
54429;DHT22;40337;52.978;6.310;2024-01-16T06:49:58;1.00;99.90
54429;DHT22;40337;52.978;6.310;2024-01-16T06:52:24;1.10;99.90
54429;DHT22;40337;52.978;6.310;2024-01-16T06:54:50;1.00;99.90
54429;DHT22;40337;52.978;6.310;2024-01-16T06:57:16;1.10;99.90
54429;DHT22;40337;52.978;6.310;2024-01-16T06:59:41;1.10;99.90
54429;DHT22;40337;52.978;6.310;2024-01-16T07:02:07;1.10;99.90
54429;DHT22;40337;52.978;6.310;2024-01-16T07:04:33;1.10;99.90
54429;DHT22;40337;52.978;6.310;2024-01-16T07:06:59;1.10;99.90
54429;DHT22;40337;52.978;6.310;2024-01-16T07:09:25;1.10;99.90
54429;DHT22;40337;52.978;6.310;2024-01-16T07:11:53;1.10;99.90
54429;DHT22;40337;52.978;6.310;2024-01-16T07:14:19;1.10;99.90
54429;DHT22;40337;52.978;6.310;2024-01-16T07:16:45;1.10;99.90
54429;DHT22;40337;52.978;6.310;2024-01-16T07:19:11;1.10;99.90
54429;DHT22;40337;52.978;6.310;2024-01-16T07:21:37;1.10;99.90
54429;DHT22;40337;52.978;6.310;2024-01-16T07:24:03;1.10;99.90
54429;DHT22;40337;52.978;6.310;2024-01-16T07:26:29;1.20;99.90
54429;DHT22;40337;52.978;6.310;2024-01-16T07:28:55;1.20;99.90
54429;DHT22;40337;52.978;6.310;2024-01-16T07:31:21;1.20;99.90
54429;DHT22;40337;52.978;6.310;2024-01-16T07:33:46;1.10;99.90
54429;DHT22;40337;52.978;6.310;2024-01-16T07:36:13;1.10;99.90
54429;DHT22;40337;52.978;6.310;2024-01-16T07:38:39;1.20;99.90
54429;DHT22;40337;52.978;6.310;2024-01-16T07:41:05;1.20;99.90
54429;DHT22;40337;52.978;6.310;2024-01-16T07:43:31;1.20;99.90
54429;DHT22;40337;52.978;6.310;2024-01-16T07:45:57;1.10;99.90
54429;DHT22;40337;52.978;6.310;2024-01-16T07:48:23;1.20;99.90
54429;DHT22;40337;52.978;6.310;2024-01-16T07:50:49;1.20;99.90
54429;DHT22;40337;52.978;6.310;2024-01-16T07:53:14;1.20;99.90
54429;DHT22;40337;52.978;6.310;2024-01-16T07:55:43;1.20;99.90
54429;DHT22;40337;52.978;6.310;2024-01-16T07:58:11;1.20;99.90
54429;DHT22;40337;52.978;6.310;2024-01-16T08:00:37;1.20;99.90
54429;DHT22;40337;52.978;6.310;2024-01-16T08:03:03;1.30;99.90
54429;DHT22;40337;52.978;6.310;2024-01-16T08:05:28;1.20;99.90
54429;DHT22;40337;52.978;6.310;2024-01-16T08:07:56;1.30;99.90
54429;DHT22;40337;52.978;6.310;2024-01-16T08:10:22;1.30;99.90
54429;DHT22;40337;52.978;6.310;2024-01-16T08:12:47;1.30;99.90
54429;DHT22;40337;52.978;6.310;2024-01-16T08:15:13;1.30;99.90
54429;DHT22;40337;52.978;6.310;2024-01-16T08:17:39;1.30;99.90
54429;DHT22;40337;52.978;6.310;2024-01-16T08:20:05;1.40;99.90
54429;DHT22;40337;52.978;6.310;2024-01-16T08:22:31;1.40;99.90
54429;DHT22;40337;52.978;6.310;2024-01-16T08:24:57;1.50;99.90
54429;DHT22;40337;52.978;6.310;2024-01-16T08:27:22;1.60;99.90
54429;DHT22;40337;52.978;6.310;2024-01-16T08:29:48;1.60;99.90
54429;DHT22;40337;52.978;6.310;2024-01-16T08:32:16;1.70;99.90
54429;DHT22;40337;52.978;6.310;2024-01-16T08:34:42;1.70;99.90
54429;DHT22;40337;52.978;6.310;2024-01-16T08:37:08;1.70;99.90
54429;DHT22;40337;52.978;6.310;2024-01-16T08:39:34;1.80;99.90
54429;DHT22;40337;52.978;6.310;2024-01-16T08:42:00;1.90;99.90
54429;DHT22;40337;52.978;6.310;2024-01-16T08:44:27;1.90;99.90
54429;DHT22;40337;52.978;6.310;2024-01-16T08:46:53;1.90;99.90
54429;DHT22;40337;52.978;6.310;2024-01-16T08:49:19;1.90;99.90
54429;DHT22;40337;52.978;6.310;2024-01-16T08:51:44;2.00;99.90
54429;DHT22;40337;52.978;6.310;2024-01-16T08:54:10;2.00;99.90
54429;DHT22;40337;52.978;6.310;2024-01-16T08:56:36;2.00;99.90
54429;DHT22;40337;52.978;6.310;2024-01-16T08:59:02;2.00;99.90
54429;DHT22;40337;52.978;6.310;2024-01-16T09:01:27;2.00;99.90
54429;DHT22;40337;52.978;6.310;2024-01-16T09:03:53;2.00;99.90
54429;DHT22;40337;52.978;6.310;2024-01-16T09:06:19;2.00;99.90
54429;DHT22;40337;52.978;6.310;2024-01-16T09:08:44;2.10;99.90
54429;DHT22;40337;52.978;6.310;2024-01-16T09:11:10;2.10;99.90
54429;DHT22;40337;52.978;6.310;2024-01-16T09:13:37;2.10;99.90
54429;DHT22;40337;52.978;6.310;2024-01-16T09:16:03;2.10;99.90
54429;DHT22;40337;52.978;6.310;2024-01-16T09:18:29;2.10;99.90
54429;DHT22;40337;52.978;6.310;2024-01-16T09:20:54;2.20;99.90
54429;DHT22;40337;52.978;6.310;2024-01-16T09:23:20;2.20;99.90
54429;DHT22;40337;52.978;6.310;2024-01-16T09:25:46;2.20;99.90
54429;DHT22;40337;52.978;6.310;2024-01-16T09:28:12;2.20;99.90
54429;DHT22;40337;52.978;6.310;2024-01-16T09:30:37;2.20;99.90
54429;DHT22;40337;52.978;6.310;2024-01-16T09:33:03;2.20;99.90
54429;DHT22;40337;52.978;6.310;2024-01-16T09:35:32;2.10;99.90
54429;DHT22;40337;52.978;6.310;2024-01-16T09:37:58;2.10;99.90
54429;DHT22;40337;52.978;6.310;2024-01-16T09:40:25;2.20;99.90
54429;DHT22;40337;52.978;6.310;2024-01-16T09:42:51;2.20;99.90
54429;DHT22;40337;52.978;6.310;2024-01-16T09:45:19;2.20;99.90
54429;DHT22;40337;52.978;6.310;2024-01-16T09:47:47;2.30;99.90
54429;DHT22;40337;52.978;6.310;2024-01-16T09:50:14;2.30;99.90
54429;DHT22;40337;52.978;6.310;2024-01-16T09:52:41;2.30;99.90
54429;DHT22;40337;52.978;6.310;2024-01-16T09:55:07;2.30;99.90
54429;DHT22;40337;52.978;6.310;2024-01-16T09:57:35;2.50;99.90
54429;DHT22;40337;52.978;6.310;2024-01-16T10:00:03;2.50;99.90
54429;DHT22;40337;52.978;6.310;2024-01-16T10:02:31;2.50;99.90
54429;DHT22;40337;52.978;6.310;2024-01-16T10:04:57;2.50;99.90
54429;DHT22;40337;52.978;6.310;2024-01-16T10:07:24;2.50;99.90
54429;DHT22;40337;52.978;6.310;2024-01-16T10:09:56;2.60;99.90
54429;DHT22;40337;52.978;6.310;2024-01-16T10:12:22;2.60;99.90
54429;DHT22;40337;52.978;6.310;2024-01-16T10:14:49;2.60;99.90
54429;DHT22;40337;52.978;6.310;2024-01-16T10:17:17;2.70;99.90
54429;DHT22;40337;52.978;6.310;2024-01-16T10:19:51;2.70;99.90
54429;DHT22;40337;52.978;6.310;2024-01-16T10:22:21;2.60;99.90
54429;DHT22;40337;52.978;6.310;2024-01-16T10:24:48;2.60;99.90
54429;DHT22;40337;52.978;6.310;2024-01-16T10:27:16;2.60;99.90
54429;DHT22;40337;52.978;6.310;2024-01-16T10:29:56;2.70;99.90
54429;DHT22;40337;52.978;6.310;2024-01-16T10:32:35;2.60;99.90
54429;DHT22;40337;52.978;6.310;2024-01-16T10:35:06;2.60;99.90
54429;DHT22;40337;52.978;6.310;2024-01-16T10:37:47;2.70;99.90
54429;DHT22;40337;52.978;6.310;2024-01-16T10:40:17;2.60;99.90
54429;DHT22;40337;52.978;6.310;2024-01-16T10:42:45;2.50;99.90
54429;DHT22;40337;52.978;6.310;2024-01-16T10:45:18;2.50;99.90
54429;DHT22;40337;52.978;6.310;2024-01-16T10:47:46;2.40;99.90
54429;DHT22;40337;52.978;6.310;2024-01-16T10:50:12;2.40;99.90
54429;DHT22;40337;52.978;6.310;2024-01-16T10:52:48;2.30;99.90
54429;DHT22;40337;52.978;6.310;2024-01-16T10:55:24;2.30;99.90
54429;DHT22;40337;52.978;6.310;2024-01-16T10:57:50;2.30;99.90
54429;DHT22;40337;52.978;6.310;2024-01-16T11:00:21;2.30;99.90
54429;DHT22;40337;52.978;6.310;2024-01-16T11:03:08;2.30;99.90
54429;DHT22;40337;52.978;6.310;2024-01-16T11:05:35;2.20;99.90
54429;DHT22;40337;52.978;6.310;2024-01-16T11:08:03;2.20;99.90
54429;DHT22;40337;52.978;6.310;2024-01-16T11:10:32;2.20;99.90
54429;DHT22;40337;52.978;6.310;2024-01-16T11:13:01;2.20;99.90
54429;DHT22;40337;52.978;6.310;2024-01-16T11:15:28;2.20;99.90
54429;DHT22;40337;52.978;6.310;2024-01-16T11:17:55;2.20;99.90
54429;DHT22;40337;52.978;6.310;2024-01-16T11:20:22;2.20;99.90
54429;DHT22;40337;52.978;6.310;2024-01-16T11:22:49;2.20;99.90
54429;DHT22;40337;52.978;6.310;2024-01-16T11:25:17;2.30;99.90
54429;DHT22;40337;52.978;6.310;2024-01-16T11:27:45;2.30;99.90
54429;DHT22;40337;52.978;6.310;2024-01-16T11:30:29;2.30;99.90
54429;DHT22;40337;52.978;6.310;2024-01-16T11:32:55;2.40;99.90
54429;DHT22;40337;52.978;6.310;2024-01-16T11:35:32;2.40;99.90
54429;DHT22;40337;52.978;6.310;2024-01-16T11:38:16;2.40;99.90
54429;DHT22;40337;52.978;6.310;2024-01-16T11:40:42;2.40;99.90
54429;DHT22;40337;52.978;6.310;2024-01-16T11:46:08;2.40;99.90
54429;DHT22;40337;52.978;6.310;2024-01-16T11:48:34;2.40;99.90
54429;DHT22;40337;52.978;6.310;2024-01-16T11:51:00;2.40;99.90
54429;DHT22;40337;52.978;6.310;2024-01-16T11:53:46;2.40;99.90
54429;DHT22;40337;52.978;6.310;2024-01-16T12:02:20;2.40;99.90
54429;DHT22;40337;52.978;6.310;2024-01-16T12:04:55;2.40;99.90
54429;DHT22;40337;52.978;6.310;2024-01-16T12:07:22;2.30;99.90
54429;DHT22;40337;52.978;6.310;2024-01-16T12:09:48;2.40;99.90
54429;DHT22;40337;52.978;6.310;2024-01-16T12:12:15;2.40;99.90
54429;DHT22;40337;52.978;6.310;2024-01-16T12:14:51;2.50;99.90
54429;DHT22;40337;52.978;6.310;2024-01-16T12:17:18;2.50;99.90
54429;DHT22;40337;52.978;6.310;2024-01-16T12:19:46;2.50;99.90
54429;DHT22;40337;52.978;6.310;2024-01-16T12:22:16;2.50;99.90
54429;DHT22;40337;52.978;6.310;2024-01-16T12:24:44;2.60;99.90
54429;DHT22;40337;52.978;6.310;2024-01-16T12:27:10;2.60;99.90
54429;DHT22;40337;52.978;6.310;2024-01-16T12:29:36;2.60;99.90
54429;DHT22;40337;52.978;6.310;2024-01-16T12:32:11;2.60;99.90
54429;DHT22;40337;52.978;6.310;2024-01-16T12:34:44;2.70;99.90
54429;DHT22;40337;52.978;6.310;2024-01-16T12:37:13;3.10;99.90
54429;DHT22;40337;52.978;6.310;2024-01-16T12:39:39;3.50;99.90
54429;DHT22;40337;52.978;6.310;2024-01-16T12:42:08;3.60;99.90
54429;DHT22;40337;52.978;6.310;2024-01-16T12:44:35;3.70;99.90
54429;DHT22;40337;52.978;6.310;2024-01-16T12:47:01;3.70;99.90
54429;DHT22;40337;52.978;6.310;2024-01-16T12:49:28;3.50;99.90
54429;DHT22;40337;52.978;6.310;2024-01-16T12:52:19;3.30;99.90
54429;DHT22;40337;52.978;6.310;2024-01-16T12:54:46;3.00;99.90
54429;DHT22;40337;52.978;6.310;2024-01-16T12:57:22;2.80;99.90
54429;DHT22;40337;52.978;6.310;2024-01-16T12:59:48;2.70;99.90
54429;DHT22;40337;52.978;6.310;2024-01-16T13:02:24;2.70;99.90
54429;DHT22;40337;52.978;6.310;2024-01-16T13:05:00;2.60;99.90
54429;DHT22;40337;52.978;6.310;2024-01-16T13:07:28;2.70;99.90
54429;DHT22;40337;52.978;6.310;2024-01-16T13:10:26;2.70;99.90
54429;DHT22;40337;52.978;6.310;2024-01-16T13:12:52;2.70;99.90
54429;DHT22;40337;52.978;6.310;2024-01-16T13:15:17;3.00;99.90
54429;DHT22;40337;52.978;6.310;2024-01-16T13:17:43;4.10;99.90
54429;DHT22;40337;52.978;6.310;2024-01-16T13:20:09;5.00;99.90
54429;DHT22;40337;52.978;6.310;2024-01-16T13:22:35;5.60;99.90
54429;DHT22;40337;52.978;6.310;2024-01-16T13:25:01;6.00;99.90
54429;DHT22;40337;52.978;6.310;2024-01-16T13:27:27;6.20;99.90
54429;DHT22;40337;52.978;6.310;2024-01-16T13:29:55;6.10;99.90
54429;DHT22;40337;52.978;6.310;2024-01-16T13:32:21;6.30;99.90
54429;DHT22;40337;52.978;6.310;2024-01-16T13:34:47;6.40;99.90
54429;DHT22;40337;52.978;6.310;2024-01-16T13:37:20;6.50;99.90
54429;DHT22;40337;52.978;6.310;2024-01-16T13:39:47;6.40;99.90
54429;DHT22;40337;52.978;6.310;2024-01-16T13:42:12;6.60;99.90
54429;DHT22;40337;52.978;6.310;2024-01-16T13:44:38;6.60;99.90
54429;DHT22;40337;52.978;6.310;2024-01-16T13:47:05;6.60;99.90
54429;DHT22;40337;52.978;6.310;2024-01-16T13:49:30;6.40;99.90
54429;DHT22;40337;52.978;6.310;2024-01-16T13:51:56;6.10;99.90
54429;DHT22;40337;52.978;6.310;2024-01-16T13:54:21;5.90;99.90
54429;DHT22;40337;52.978;6.310;2024-01-16T13:56:47;5.60;99.90
54429;DHT22;40337;52.978;6.310;2024-01-16T13:59:12;5.60;99.90
54429;DHT22;40337;52.978;6.310;2024-01-16T14:01:38;5.30;99.90
54429;DHT22;40337;52.978;6.310;2024-01-16T14:04:04;4.70;99.90
54429;DHT22;40337;52.978;6.310;2024-01-16T14:06:30;4.10;99.90
54429;DHT22;40337;52.978;6.310;2024-01-16T14:08:56;3.80;99.90
54429;DHT22;40337;52.978;6.310;2024-01-16T14:11:22;3.60;99.90
54429;DHT22;40337;52.978;6.310;2024-01-16T14:13:47;3.40;99.90
54429;DHT22;40337;52.978;6.310;2024-01-16T14:16:13;3.30;99.90
54429;DHT22;40337;52.978;6.310;2024-01-16T14:18:39;3.20;99.90
54429;DHT22;40337;52.978;6.310;2024-01-16T14:21:05;3.20;99.90
54429;DHT22;40337;52.978;6.310;2024-01-16T14:23:30;3.60;99.90
54429;DHT22;40337;52.978;6.310;2024-01-16T14:25:57;4.20;99.90
54429;DHT22;40337;52.978;6.310;2024-01-16T14:28:22;4.40;99.90
54429;DHT22;40337;52.978;6.310;2024-01-16T14:30:51;4.40;99.90
54429;DHT22;40337;52.978;6.310;2024-01-16T14:33:17;4.40;99.90
54429;DHT22;40337;52.978;6.310;2024-01-16T14:35:43;4.00;99.90
54429;DHT22;40337;52.978;6.310;2024-01-16T14:38:09;3.60;99.90
54429;DHT22;40337;52.978;6.310;2024-01-16T14:40:34;3.30;99.90
54429;DHT22;40337;52.978;6.310;2024-01-16T14:43:00;3.10;99.90
54429;DHT22;40337;52.978;6.310;2024-01-16T14:45:30;2.90;99.90
54429;DHT22;40337;52.978;6.310;2024-01-16T14:47:57;2.80;99.90
54429;DHT22;40337;52.978;6.310;2024-01-16T14:50:23;2.60;99.90
54429;DHT22;40337;52.978;6.310;2024-01-16T14:52:49;2.50;99.90
54429;DHT22;40337;52.978;6.310;2024-01-16T14:55:15;2.50;99.90
54429;DHT22;40337;52.978;6.310;2024-01-16T14:57:41;2.40;99.90
54429;DHT22;40337;52.978;6.310;2024-01-16T15:00:11;2.30;99.90
54429;DHT22;40337;52.978;6.310;2024-01-16T15:02:41;2.30;99.90
54429;DHT22;40337;52.978;6.310;2024-01-16T15:05:07;2.60;99.90
54429;DHT22;40337;52.978;6.310;2024-01-16T15:07:33;3.00;99.90
54429;DHT22;40337;52.978;6.310;2024-01-16T15:09:59;3.10;99.90
54429;DHT22;40337;52.978;6.310;2024-01-16T15:12:26;2.80;99.90
54429;DHT22;40337;52.978;6.310;2024-01-16T15:14:52;2.50;99.90
54429;DHT22;40337;52.978;6.310;2024-01-16T15:17:17;2.40;99.90
54429;DHT22;40337;52.978;6.310;2024-01-16T15:19:43;2.20;99.90
54429;DHT22;40337;52.978;6.310;2024-01-16T15:22:08;2.10;99.90
54429;DHT22;40337;52.978;6.310;2024-01-16T15:24:34;2.10;99.90
54429;DHT22;40337;52.978;6.310;2024-01-16T15:27:00;2.00;99.90
54429;DHT22;40337;52.978;6.310;2024-01-16T15:29:25;2.00;99.90
54429;DHT22;40337;52.978;6.310;2024-01-16T15:31:51;1.90;99.90
54429;DHT22;40337;52.978;6.310;2024-01-16T15:34:18;1.90;99.90
54429;DHT22;40337;52.978;6.310;2024-01-16T15:36:45;1.80;99.90
54429;DHT22;40337;52.978;6.310;2024-01-16T15:39:11;1.80;99.90
54429;DHT22;40337;52.978;6.310;2024-01-16T15:41:37;1.80;99.90
54429;DHT22;40337;52.978;6.310;2024-01-16T15:44:03;1.80;99.90
54429;DHT22;40337;52.978;6.310;2024-01-16T15:46:28;1.80;99.90
54429;DHT22;40337;52.978;6.310;2024-01-16T15:48:54;1.80;99.90
54429;DHT22;40337;52.978;6.310;2024-01-16T15:51:22;1.80;99.90